Time;durP1;ratioP1;P1;durP2;ratioP2;P2;SDS_P1;SDS_P2;PMS_P1;PMS_P2;Temp;Humidity;BMP_temperature;BMP_pressure;BME280_temperature;BME280_humidity;BME280_pressure;Samples;Min_cycle;Max_cycle;Signal;HPM_P1;HPM_P2
2021/05/06 00:02:04;;;;;;;1.00;0.83;;;25.60;50.70;;;;;;4915757;29;20531;-86
2021/05/06 00:10:42;;;;;;;2.20;1.23;;;25.60;50.80;;;;;;4957668;28;20541;-86
2021/05/06 00:32:20;;;;;;;1.70;1.10;;;25.60;50.90;;;;;;4957318;28;20440;-85
2021/05/06 00:34:46;;;;;;;1.00;0.80;;;25.50;50.90;;;;;;4957265;28;20841;-86
2021/05/06 00:37:16;;;;;;;1.20;1.10;;;25.60;50.90;;;;;;4957375;29;20500;-86
2021/05/06 00:39:46;;;;;;;1.00;0.90;;;25.50;50.90;;;;;;4957347;28;20452;-86
2021/05/06 00:42:21;;;;;;;1.43;1.17;;;25.50;50.90;;;;;;4957279;28;20512;-86
2021/05/06 00:45:23;;;;;;;1.10;1.00;;;25.50;50.90;;;;;;4957127;28;20491;-86
2021/05/06 00:56:29;;;;;;;1.63;1.10;;;25.50;50.90;;;;;;4957032;28;20535;-86
2021/05/06 00:59:27;;;;;;;1.40;0.90;;;25.50;51.00;;;;;;4956831;29;20936;-85
2021/05/06 01:02:11;;;;;;;1.20;1.10;;;25.50;51.00;;;;;;4956746;28;20461;-86
2021/05/06 01:04:43;;;;;;;1.30;1.03;;;25.40;50.90;;;;;;4956858;28;20461;-86
2021/05/06 01:10:16;;;;;;;1.00;0.70;;;25.50;50.90;;;;;;4949801;28;20443;-86
2021/05/06 01:12:43;;;;;;;1.30;0.90;;;25.40;50.80;;;;;;4956509;28;20449;-86
2021/05/06 01:15:11;;;;;;;1.10;1.00;;;25.40;50.90;;;;;;4956761;29;20982;-86
2021/05/06 01:17:37;;;;;;;1.10;0.80;;;25.40;50.90;;;;;;4956427;29;20460;-86
2021/05/06 01:20:05;;;;;;;2.23;1.17;;;25.40;50.80;;;;;;4956267;29;20935;-86
2021/05/06 01:22:32;;;;;;;1.13;0.90;;;25.40;50.80;;;;;;4956358;28;20443;-86
2021/05/06 01:24:59;;;;;;;1.20;1.03;;;25.50;50.90;;;;;;4956985;29;20444;-86
2021/05/06 01:27:35;;;;;;;1.40;1.00;;;25.60;50.90;;;;;;4956393;29;20554;-85
2021/05/06 01:30:08;;;;;;;1.20;1.10;;;25.40;50.70;;;;;;4956393;28;20448;-86
2021/05/06 01:32:38;;;;;;;1.30;1.17;;;25.40;50.70;;;;;;4956428;28;20809;-86
2021/05/06 01:35:07;;;;;;;1.00;0.90;;;25.40;50.70;;;;;;4956357;29;20496;-86
2021/05/06 01:37:41;;;;;;;1.20;1.10;;;25.50;50.70;;;;;;4956082;28;20450;-86
2021/05/06 01:42:51;;;;;;;1.00;0.83;;;25.40;50.70;;;;;;4955641;29;20536;-86
2021/05/06 01:48:13;;;;;;;1.00;0.90;;;25.60;50.70;;;;;;4955760;28;20536;-86
2021/05/06 01:51:06;;;;;;;1.37;1.27;;;25.40;50.50;;;;;;4955847;28;20892;-86
2021/05/06 01:59:04;;;;;;;1.20;0.93;;;25.60;50.70;;;;;;4916908;28;20441;-86
2021/05/06 02:01:31;;;;;;;1.20;1.00;;;25.40;50.50;;;;;;4955698;29;20461;-86
2021/05/06 02:03:57;;;;;;;1.10;1.00;;;25.50;50.50;;;;;;4955755;28;20449;-86
2021/05/06 02:06:23;;;;;;;1.10;0.90;;;25.50;50.60;;;;;;4955597;28;20493;-86
2021/05/06 02:08:50;;;;;;;1.37;1.00;;;25.50;50.60;;;;;;4955645;29;20945;-86
2021/05/06 02:11:16;;;;;;;1.23;1.00;;;25.50;50.60;;;;;;4955670;29;20459;-86
2021/05/06 02:13:43;;;;;;;2.60;1.10;;;25.50;50.60;;;;;;4954814;28;20446;-86
2021/05/06 02:16:16;;;;;;;1.30;1.10;;;25.50;50.50;;;;;;4955431;28;21017;-86
2021/05/06 02:18:43;;;;;;;1.10;0.90;;;25.40;50.40;;;;;;4955724;29;20527;-86
2021/05/06 02:21:14;;;;;;;2.07;0.90;;;25.50;50.50;;;;;;4955409;29;20498;-86
2021/05/06 02:23:41;;;;;;;1.30;0.80;;;25.50;50.60;;;;;;4955497;28;20503;-86
2021/05/06 02:26:08;;;;;;;1.20;1.10;;;25.50;50.50;;;;;;4955220;28;21006;-86
2021/05/06 02:28:35;;;;;;;1.10;1.00;;;25.50;50.40;;;;;;4955209;28;20446;-86
2021/05/06 02:31:01;;;;;;;1.00;0.90;;;25.50;50.50;;;;;;4955424;28;20471;-86
2021/05/06 02:33:27;;;;;;;1.10;0.90;;;25.50;51.10;;;;;;4955615;29;20448;-86
2021/05/06 02:35:54;;;;;;;1.30;1.10;;;25.50;50.50;;;;;;4955403;29;20866;-86
2021/05/06 02:38:20;;;;;;;1.30;0.90;;;25.50;50.50;;;;;;4955307;28;20448;-86
2021/05/06 02:40:46;;;;;;;1.40;1.00;;;25.60;50.50;;;;;;4955343;28;20452;-86
2021/05/06 02:43:13;;;;;;;1.13;0.90;;;25.50;50.40;;;;;;4955391;29;20440;-86
2021/05/06 02:45:39;;;;;;;1.20;0.90;;;25.60;50.60;;;;;;4955359;28;20475;-86
2021/05/06 02:48:06;;;;;;;1.60;0.90;;;25.50;50.50;;;;;;4955129;29;20497;-86
2021/05/06 02:50:33;;;;;;;1.37;0.97;;;25.50;50.40;;;;;;4954937;28;21046;-86
2021/05/06 02:53:02;;;;;;;1.20;0.90;;;25.50;50.40;;;;;;4955053;28;20448;-86
2021/05/06 02:55:38;;;;;;;2.00;1.10;;;25.50;50.40;;;;;;4955443;28;20507;-86
2021/05/06 02:58:10;;;;;;;1.07;0.90;;;25.50;50.40;;;;;;4955195;28;20448;-86
2021/05/06 03:03:22;;;;;;;1.10;1.00;;;25.50;50.50;;;;;;4955320;28;20439;-86
2021/05/06 03:05:52;;;;;;;1.30;0.90;;;25.50;50.50;;;;;;4955660;28;20984;-86
2021/05/06 03:08:21;;;;;;;2.60;1.20;;;25.50;50.50;;;;;;4955020;29;20594;-86
2021/05/06 03:10:57;;;;;;;1.00;0.80;;;25.50;50.60;;;;;;4954948;28;20959;-86
2021/05/06 03:24:33;;;;;;;1.10;1.00;;;25.40;50.50;;;;;;4955344;28;20516;-86
2021/05/06 03:27:00;;;;;;;1.00;0.70;;;25.40;50.60;;;;;;4958263;28;20492;-86
2021/05/06 03:29:31;;;;;;;1.10;1.00;;;25.50;50.70;;;;;;4958307;29;20451;-86
2021/05/06 03:32:07;;;;;;;1.60;0.90;;;25.50;50.70;;;;;;4958498;28;20516;-86
2021/05/06 03:34:50;;;;;;;1.10;1.00;;;25.50;50.70;;;;;;4958511;29;20491;-86
2021/05/06 03:42:50;;;;;;;1.10;0.80;;;25.40;50.70;;;;;;4958300;28;20487;-86
2021/05/06 03:48:35;;;;;;;1.10;0.90;;;25.40;50.70;;;;;;4954442;28;20489;-86
2021/05/06 04:18:30;;;;;;;1.20;0.87;;;25.40;50.80;;;;;;4944538;29;20444;-86
2021/05/06 04:26:34;;;;;;;1.03;0.80;;;25.40;50.80;;;;;;4957563;28;20491;-86
2021/05/06 04:37:26;;;;;;;1.10;0.90;;;25.40;50.80;;;;;;4942870;29;20495;-86
2021/05/06 04:39:54;;;;;;;1.00;0.90;;;25.40;50.80;;;;;;4957140;28;21014;-86
2021/05/06 04:45:27;;;;;;;1.10;0.90;;;25.30;50.90;;;;;;4957293;29;20762;-86
2021/05/06 05:04:35;;;;;;;1.00;0.80;;;25.30;50.80;;;;;;4956722;28;20496;-87
2021/05/06 05:07:09;;;;;;;1.00;0.80;;;25.40;50.80;;;;;;4956801;29;20529;-86
2021/05/06 05:09:57;;;;;;;1.17;1.00;;;25.40;50.90;;;;;;4956757;28;20459;-86
2021/05/06 05:12:42;;;;;;;1.00;0.90;;;25.40;50.80;;;;;;4956456;28;20461;-86
2021/05/06 05:17:57;;;;;;;0.90;0.80;;;25.40;51.10;;;;;;4955690;28;20991;-86
2021/05/06 05:20:34;;;;;;;3.00;0.80;;;25.50;50.90;;;;;;4956836;28;20848;-90
2021/05/06 05:23:25;;;;;;;1.00;0.90;;;25.40;51.00;;;;;;4957687;29;20781;-91
2021/05/06 05:26:00;;;;;;;0.90;0.70;;;25.50;51.00;;;;;;4956115;29;20943;-90
2021/05/06 05:28:26;;;;;;;1.00;0.90;;;25.40;51.10;;;;;;4938395;29;20496;-88
2021/05/06 05:30:52;;;;;;;1.00;0.77;;;25.50;51.20;;;;;;4937398;29;20456;-90
2021/05/06 05:33:22;;;;;;;1.20;1.00;;;25.50;51.20;;;;;;4937394;29;20544;-89
2021/05/06 05:35:56;;;;;;;1.20;1.00;;;25.50;51.20;;;;;;4937441;29;20470;-88
2021/05/06 05:38:32;;;;;;;3.77;1.00;;;25.50;51.20;;;;;;4937504;29;20485;-91
2021/05/06 05:41:03;;;;;;;1.00;0.90;;;25.50;51.30;;;;;;4937093;29;20932;-88
2021/05/06 05:43:46;;;;;;;1.10;0.90;;;25.50;51.30;;;;;;4937135;29;20541;-91
2021/05/06 05:54:36;;;;;;;1.20;0.93;;;25.50;51.30;;;;;;4937181;29;20928;-90
2021/05/06 05:57:08;;;;;;;1.40;1.20;;;25.50;51.40;;;;;;4937263;29;20501;-90
2021/05/06 05:59:35;;;;;;;1.00;0.83;;;25.50;51.50;;;;;;4936982;29;20449;-89
2021/05/06 06:02:01;;;;;;;1.33;0.90;;;25.50;51.50;;;;;;4936789;29;20524;-91
2021/05/06 06:04:28;;;;;;;1.00;0.90;;;25.50;51.70;;;;;;4936769;29;20473;-89
2021/05/06 06:06:55;;;;;;;1.00;0.90;;;25.50;51.80;;;;;;4936968;29;20482;-89
2021/05/06 06:09:21;;;;;;;1.17;1.07;;;25.50;51.70;;;;;;4936467;29;20446;-90
2021/05/06 06:11:47;;;;;;;2.17;1.10;;;25.50;51.70;;;;;;4936646;29;20461;-88
2021/05/06 06:14:20;;;;;;;1.20;1.10;;;25.50;51.80;;;;;;4936576;29;20450;-91
2021/05/06 06:16:46;;;;;;;1.70;1.53;;;25.50;51.70;;;;;;4936712;29;20459;-88
2021/05/06 06:19:15;;;;;;;1.53;1.43;;;25.50;51.70;;;;;;4936702;29;20458;-86
2021/05/06 06:21:45;;;;;;;1.77;1.50;;;25.60;51.10;;;;;;4936654;29;20455;-86
2021/05/06 06:24:11;;;;;;;1.97;1.83;;;25.60;50.60;;;;;;4936408;29;20471;-86
2021/05/06 06:26:38;;;;;;;1.53;1.43;;;25.60;50.70;;;;;;4936285;29;20492;-86
2021/05/06 06:29:06;;;;;;;1.73;1.63;;;25.60;50.90;;;;;;4936180;29;20549;-85
2021/05/06 06:31:38;;;;;;;1.97;1.30;;;25.60;50.40;;;;;;4935977;29;20458;-85
2021/05/06 06:34:04;;;;;;;2.07;1.30;;;25.60;51.20;;;;;;4936019;29;20481;-85
2021/05/06 06:36:31;;;;;;;1.20;1.10;;;25.60;51.40;;;;;;4934977;29;20506;-85
2021/05/06 06:38:57;;;;;;;1.57;1.47;;;25.60;51.60;;;;;;4936169;29;20447;-85
2021/05/06 06:41:24;;;;;;;4.30;1.60;;;25.60;51.60;;;;;;4936156;29;20910;-86
2021/05/06 06:43:52;;;;;;;1.63;1.40;;;25.60;51.60;;;;;;4935916;29;20946;-86
2021/05/06 06:46:18;;;;;;;1.50;1.20;;;25.60;51.50;;;;;;4936224;29;20459;-85
2021/05/06 06:48:46;;;;;;;1.40;1.30;;;25.60;51.50;;;;;;4936004;29;20934;-86
2021/05/06 06:51:12;;;;;;;1.40;1.30;;;25.60;51.40;;;;;;4935852;29;20537;-86
2021/05/06 06:53:39;;;;;;;1.20;1.10;;;25.70;51.50;;;;;;4936099;29;20442;-86
2021/05/06 06:56:05;;;;;;;1.63;1.43;;;25.70;51.40;;;;;;4935795;29;20489;-85
2021/05/06 06:58:32;;;;;;;1.50;1.40;;;25.60;51.40;;;;;;4935889;29;20454;-86
2021/05/06 07:00:59;;;;;;;1.73;1.63;;;25.70;51.40;;;;;;4938826;29;20541;-86
2021/05/06 07:03:25;;;;;;;1.40;1.30;;;25.70;51.30;;;;;;4939639;29;20501;-85
2021/05/06 07:05:52;;;;;;;1.47;1.37;;;25.70;51.20;;;;;;4939479;29;20987;-86
2021/05/06 07:08:21;;;;;;;2.27;1.40;;;25.70;51.20;;;;;;4939590;29;20585;-86
2021/05/06 07:10:50;;;;;;;1.60;1.33;;;25.70;51.10;;;;;;4939477;29;20455;-85
2021/05/06 07:13:17;;;;;;;1.80;1.70;;;25.70;51.10;;;;;;4939419;29;20444;-86
2021/05/06 07:15:46;;;;;;;1.50;1.40;;;25.70;51.20;;;;;;4939276;29;20549;-85
2021/05/06 07:18:13;;;;;;;2.27;1.30;;;25.70;51.20;;;;;;4939426;29;20538;-85
2021/05/06 07:20:42;;;;;;;1.37;1.27;;;25.70;51.10;;;;;;4939507;29;20547;-86
2021/05/06 07:23:09;;;;;;;1.30;1.20;;;25.70;51.60;;;;;;4939450;29;20461;-86
2021/05/06 07:25:36;;;;;;;1.40;1.30;;;25.70;51.60;;;;;;4939814;29;20442;-86
2021/05/06 07:28:10;;;;;;;1.83;1.73;;;25.70;51.00;;;;;;4939164;29;20502;-86
2021/05/06 07:30:37;;;;;;;1.73;1.30;;;25.70;51.00;;;;;;4939155;29;20456;-86
2021/05/06 07:33:03;;;;;;;1.50;1.40;;;25.70;51.60;;;;;;4939237;29;20796;-86
2021/05/06 07:35:31;;;;;;;1.43;1.33;;;25.80;51.10;;;;;;4939014;29;20481;-86
2021/05/06 07:37:58;;;;;;;1.47;1.37;;;25.80;51.70;;;;;;4939214;29;20457;-85
2021/05/06 07:40:25;;;;;;;1.50;1.40;;;25.80;51.20;;;;;;4939130;29;20444;-86
2021/05/06 07:42:51;;;;;;;1.37;1.27;;;25.80;51.30;;;;;;4939019;29;20457;-86
2021/05/06 07:45:18;;;;;;;1.40;1.30;;;25.80;51.20;;;;;;4939435;29;20443;-90
2021/05/06 07:47:44;;;;;;;1.60;1.50;;;25.80;51.20;;;;;;4938767;29;20577;-89
2021/05/06 07:50:12;;;;;;;1.63;1.53;;;25.90;51.20;;;;;;4938988;29;20989;-87
2021/05/06 07:52:41;;;;;;;1.30;1.20;;;25.90;51.20;;;;;;4939069;29;20539;-89
2021/05/06 07:55:08;;;;;;;1.87;1.77;;;25.90;51.20;;;;;;4939879;29;20878;-89
2021/05/06 07:57:35;;;;;;;3.87;2.57;;;25.90;51.20;;;;;;4938952;29;20497;-88
2021/05/06 08:00:02;;;;;;;1.60;1.50;;;25.90;49.90;;;;;;4938835;29;20868;-89
2021/05/06 08:02:28;;;;;;;1.73;1.63;;;25.90;49.40;;;;;;4939214;29;20498;-86
2021/05/06 08:04:54;;;;;;;4.30;2.97;;;25.80;49.20;;;;;;4938507;29;20525;-92
2021/05/06 08:07:21;;;;;;;2.40;2.20;;;25.80;48.00;;;;;;4938942;29;20890;-88
2021/05/06 08:09:48;;;;;;;1.93;1.83;;;25.60;49.00;;;;;;4939039;29;20455;-91
2021/05/06 08:12:15;;;;;;;5.00;2.00;;;25.60;49.50;;;;;;4937626;29;20453;-90
2021/05/06 08:14:42;;;;;;;2.43;2.10;;;25.60;49.80;;;;;;4938716;29;20455;-91
2021/05/06 08:17:08;;;;;;;2.80;2.00;;;25.70;50.00;;;;;;4938687;29;20457;-90
2021/05/06 08:19:35;;;;;;;2.77;2.10;;;25.70;50.10;;;;;;4938785;29;20557;-91
2021/05/06 08:22:01;;;;;;;2.37;2.20;;;25.70;50.70;;;;;;4933045;29;20547;-89
2021/05/06 08:24:28;;;;;;;3.57;1.83;;;25.70;50.10;;;;;;4938446;29;20513;-90
2021/05/06 08:26:54;;;;;;;1.73;1.63;;;25.80;50.30;;;;;;4938071;29;20569;-90
2021/05/06 08:29:21;;;;;;;2.80;1.70;;;25.80;50.30;;;;;;4938230;29;20447;-90
2021/05/06 08:31:49;;;;;;;1.53;1.43;;;25.80;50.20;;;;;;4938219;29;20443;-90
2021/05/06 08:34:15;;;;;;;1.90;1.80;;;25.80;50.30;;;;;;4938156;29;20557;-90
2021/05/06 08:36:41;;;;;;;1.80;1.70;;;25.80;50.40;;;;;;4938191;29;20455;-90
2021/05/06 08:39:08;;;;;;;1.70;1.60;;;25.80;50.40;;;;;;4938389;29;20534;-90
2021/05/06 08:41:35;;;;;;;1.80;1.70;;;25.80;50.60;;;;;;4937969;29;20542;-89
2021/05/06 08:44:04;;;;;;;1.63;1.50;;;25.80;50.70;;;;;;4938131;29;21018;-90
2021/05/06 08:46:34;;;;;;;2.10;1.60;;;25.80;50.80;;;;;;4939037;29;20910;-90
2021/05/06 08:49:03;;;;;;;3.33;1.60;;;25.80;50.80;;;;;;4938175;29;20824;-90
2021/05/06 08:51:30;;;;;;;2.30;2.10;;;25.80;50.80;;;;;;4937525;29;20479;-90
2021/05/06 08:53:56;;;;;;;1.93;1.60;;;25.80;50.90;;;;;;4938037;29;20472;-90
2021/05/06 08:56:23;;;;;;;1.70;1.60;;;25.80;51.50;;;;;;4937967;29;20474;-90
2021/05/06 08:58:49;;;;;;;2.27;1.70;;;25.80;50.90;;;;;;4937951;29;20985;-90
2021/05/06 09:01:17;;;;;;;1.80;1.70;;;25.80;50.90;;;;;;4937511;29;20450;-90
2021/05/06 09:03:44;;;;;;;1.50;1.30;;;25.80;51.00;;;;;;4937452;29;20477;-90
2021/05/06 09:06:13;;;;;;;1.90;1.70;;;25.90;51.00;;;;;;4937760;29;20523;-90
2021/05/06 09:08:41;;;;;;;1.67;1.57;;;25.90;51.00;;;;;;4938059;29;20521;-90
2021/05/06 09:11:07;;;;;;;2.23;1.50;;;26.00;51.10;;;;;;4937559;29;20530;-90
2021/05/06 09:13:34;;;;;;;1.77;1.40;;;26.00;51.20;;;;;;4937645;29;20955;-90
2021/05/06 09:16:01;;;;;;;2.10;1.70;;;26.00;51.30;;;;;;4937329;29;20550;-90
2021/05/06 09:18:35;;;;;;;1.53;1.40;;;26.10;51.30;;;;;;4937567;29;21029;-90
2021/05/06 09:21:02;;;;;;;1.67;1.57;;;26.10;51.30;;;;;;4937273;29;20529;-90
2021/05/06 09:23:29;;;;;;;1.60;1.50;;;26.00;51.30;;;;;;4937573;29;20454;-90
2021/05/06 09:25:55;;;;;;;1.70;1.60;;;26.00;51.30;;;;;;4937432;29;20541;-90
2021/05/06 09:28:23;;;;;;;1.60;1.50;;;26.00;51.30;;;;;;4937283;29;20574;-90
2021/05/06 09:30:52;;;;;;;1.40;1.30;;;26.00;51.30;;;;;;4937173;29;20450;-90
2021/05/06 09:33:26;;;;;;;2.10;1.90;;;26.00;51.40;;;;;;4937278;29;20546;-90
2021/05/06 09:35:52;;;;;;;1.83;1.73;;;26.00;51.40;;;;;;4937166;29;20437;-90
2021/05/06 09:38:26;;;;;;;1.80;1.70;;;26.10;51.50;;;;;;4936969;29;20438;-90
2021/05/06 09:40:54;;;;;;;2.27;1.33;;;26.10;51.50;;;;;;4937084;29;20918;-90
2021/05/06 09:43:26;;;;;;;1.70;1.60;;;26.10;51.50;;;;;;4936773;29;20454;-88
2021/05/06 09:45:52;;;;;;;1.40;1.30;;;26.10;51.50;;;;;;4937081;29;20963;-90
2021/05/06 09:48:21;;;;;;;2.23;1.70;;;26.10;52.00;;;;;;4936736;29;20902;-90
2021/05/06 09:50:49;;;;;;;1.83;1.73;;;26.10;51.50;;;;;;4936811;29;20582;-90
2021/05/06 09:53:18;;;;;;;1.80;1.70;;;26.10;51.40;;;;;;4936954;29;20478;-90
2021/05/06 09:55:46;;;;;;;1.77;1.67;;;26.10;51.40;;;;;;4937092;29;20455;-90
2021/05/06 09:58:19;;;;;;;1.60;1.50;;;26.00;51.60;;;;;;4936818;29;20446;-90
2021/05/06 10:00:47;;;;;;;1.60;1.50;;;26.00;51.70;;;;;;4936640;29;20476;-90
2021/05/06 10:03:15;;;;;;;1.50;1.40;;;26.00;52.50;;;;;;4936590;29;20535;-90
2021/05/06 10:05:43;;;;;;;1.50;1.40;;;26.00;51.90;;;;;;4936778;29;20530;-91
2021/05/06 10:08:10;;;;;;;1.50;1.40;;;26.00;52.00;;;;;;4936622;29;20566;-90
2021/05/06 10:10:38;;;;;;;1.60;1.50;;;26.00;52.00;;;;;;4936339;29;20462;-90
2021/05/06 10:13:07;;;;;;;1.73;1.63;;;26.10;52.70;;;;;;4936534;29;20486;-90
2021/05/06 10:15:34;;;;;;;1.77;1.40;;;26.10;52.10;;;;;;4936479;29;20450;-90
2021/05/06 10:18:01;;;;;;;1.77;1.67;;;26.10;52.10;;;;;;4936396;29;20450;-90
2021/05/06 10:20:29;;;;;;;1.50;1.40;;;26.20;52.10;;;;;;4936525;29;21017;-90
2021/05/06 10:22:56;;;;;;;1.57;1.47;;;26.20;52.20;;;;;;4936491;29;20889;-91
2021/05/06 10:25:24;;;;;;;1.70;1.20;;;26.20;52.80;;;;;;4937300;29;20494;-91
2021/05/06 10:27:51;;;;;;;1.23;1.13;;;26.00;52.10;;;;;;4936162;29;20606;-90
2021/05/06 10:30:19;;;;;;;1.97;1.50;;;26.20;52.20;;;;;;4936235;29;20582;-90
2021/05/06 10:32:47;;;;;;;1.73;1.30;;;26.20;52.20;;;;;;4936938;29;20527;-90
2021/05/06 10:35:15;;;;;;;1.97;1.77;;;26.30;52.20;;;;;;4935701;29;20542;-88
2021/05/06 10:37:44;;;;;;;1.73;1.57;;;26.30;52.20;;;;;;4936405;29;20487;-90
2021/05/06 10:40:28;;;;;;;1.50;1.40;;;26.40;52.20;;;;;;4936451;29;20439;-91
2021/05/06 10:42:55;;;;;;;1.37;1.27;;;26.40;52.20;;;;;;4936163;29;20451;-90
2021/05/06 10:45:33;;;;;;;1.63;1.53;;;26.40;52.20;;;;;;4936344;29;20536;-90
2021/05/06 10:48:02;;;;;;;1.50;1.40;;;26.40;52.20;;;;;;4935846;29;20482;-90
2021/05/06 10:50:39;;;;;;;1.50;1.40;;;26.40;52.20;;;;;;4936118;29;20502;-91
2021/05/06 10:53:08;;;;;;;1.30;1.10;;;26.40;52.20;;;;;;4937002;29;20497;-90
2021/05/06 10:55:49;;;;;;;1.17;1.07;;;26.30;52.20;;;;;;4936131;29;20475;-90
2021/05/06 10:58:36;;;;;;;1.20;1.10;;;26.40;52.30;;;;;;4936139;29;20510;-90
2021/05/06 11:01:24;;;;;;;1.60;1.50;;;26.40;52.30;;;;;;4936049;29;20498;-90
2021/05/06 11:04:08;;;;;;;1.20;0.90;;;26.40;52.20;;;;;;4935883;29;21081;-90
2021/05/06 11:06:37;;;;;;;1.30;1.20;;;26.40;52.20;;;;;;4936127;29;20816;-90
2021/05/06 11:09:30;;;;;;;1.40;1.10;;;26.40;52.20;;;;;;4935653;29;20519;-88
2021/05/06 11:12:23;;;;;;;2.00;1.37;;;26.50;52.20;;;;;;4935741;29;20447;-91
2021/05/06 11:15:30;;;;;;;1.33;1.23;;;26.50;52.20;;;;;;4936058;29;20447;-88
2021/05/06 11:18:00;;;;;;;1.30;1.03;;;26.60;52.20;;;;;;4936015;29;20868;-90
2021/05/06 11:20:42;;;;;;;1.20;1.10;;;26.60;52.20;;;;;;4935793;29;20432;-88
2021/05/06 11:23:29;;;;;;;1.40;1.30;;;26.70;52.20;;;;;;4935818;29;20446;-88
2021/05/06 11:26:15;;;;;;;1.60;1.50;;;26.70;52.70;;;;;;4935903;29;20542;-87
2021/05/06 11:28:51;;;;;;;1.30;1.10;;;26.80;52.10;;;;;;4936460;29;20482;-90
2021/05/06 11:31:44;;;;;;;1.40;1.30;;;26.80;52.10;;;;;;4936086;29;20437;-88
2021/05/06 11:34:31;;;;;;;1.40;1.07;;;26.80;52.00;;;;;;4936109;29;20479;-87
2021/05/06 11:37:13;;;;;;;1.20;1.10;;;26.80;52.10;;;;;;4935686;29;20841;-90
2021/05/06 11:39:53;;;;;;;1.70;1.10;;;26.90;52.10;;;;;;4936310;29;20523;-88
2021/05/06 11:42:20;;;;;;;1.20;1.10;;;26.90;52.10;;;;;;4935736;29;20425;-88
2021/05/06 11:45:07;;;;;;;1.10;1.00;;;27.00;52.10;;;;;;4935787;29;20536;-88
2021/05/06 11:47:34;;;;;;;2.13;1.10;;;26.90;52.00;;;;;;4938680;29;20570;-88
2021/05/06 11:50:00;;;;;;;1.10;1.00;;;26.80;52.00;;;;;;4938638;29;21001;-88
2021/05/06 11:52:33;;;;;;;1.30;1.20;;;26.80;52.60;;;;;;4939331;29;20458;-90
2021/05/06 11:55:00;;;;;;;1.17;1.07;;;26.80;52.00;;;;;;4938932;29;20958;-90
2021/05/06 11:57:27;;;;;;;2.53;1.57;;;26.80;52.10;;;;;;4939157;29;20479;-88
2021/05/06 11:59:54;;;;;;;1.27;1.17;;;26.80;52.10;;;;;;4938906;29;20575;-88
2021/05/06 12:02:24;;;;;;;1.13;1.03;;;26.80;52.10;;;;;;4938893;29;21014;-88
2021/05/06 12:04:52;;;;;;;1.10;1.00;;;26.80;52.10;;;;;;4938882;29;20466;-88
2021/05/06 12:07:20;;;;;;;1.10;1.00;;;26.80;52.10;;;;;;4938700;29;20491;-90
2021/05/06 12:09:48;;;;;;;1.60;1.37;;;26.80;52.10;;;;;;4938815;29;20800;-88
2021/05/06 12:12:21;;;;;;;1.10;1.00;;;26.80;52.10;;;;;;4938673;29;20486;-90
2021/05/06 12:14:47;;;;;;;1.20;1.10;;;26.80;52.10;;;;;;4939281;29;20452;-90
2021/05/06 12:17:18;;;;;;;1.00;0.90;;;26.80;52.10;;;;;;4938708;29;20901;-90
2021/05/06 12:19:46;;;;;;;1.10;1.00;;;26.90;52.10;;;;;;4939374;29;20800;-90
2021/05/06 12:22:14;;;;;;;1.67;1.10;;;26.90;52.10;;;;;;4938606;29;20559;-87
2021/05/06 12:24:41;;;;;;;1.40;1.20;;;27.00;52.00;;;;;;4938625;29;20452;-90
2021/05/06 12:27:19;;;;;;;1.20;1.10;;;27.00;52.00;;;;;;4938357;29;20472;-90
2021/05/06 12:29:46;;;;;;;1.73;0.93;;;27.00;52.00;;;;;;4938223;29;20487;-90
2021/05/06 12:32:19;;;;;;;1.43;1.33;;;27.00;52.00;;;;;;4938041;29;20479;-90
2021/05/06 12:34:46;;;;;;;1.10;1.00;;;27.00;52.00;;;;;;4938475;29;20579;-90
2021/05/06 12:37:12;;;;;;;1.10;1.00;;;26.90;52.00;;;;;;4938311;29;20943;-90
2021/05/06 12:39:41;;;;;;;1.17;1.07;;;26.90;52.00;;;;;;4938200;29;20456;-90
2021/05/06 12:42:09;;;;;;;1.20;1.10;;;26.80;52.00;;;;;;4938849;29;20452;-90
2021/05/06 12:44:42;;;;;;;1.10;1.00;;;26.90;52.00;;;;;;4938094;29;20459;-90
2021/05/06 12:47:17;;;;;;;1.20;1.10;;;26.90;52.00;;;;;;4938293;29;20473;-90
2021/05/06 12:49:44;;;;;;;1.30;1.20;;;26.90;52.10;;;;;;4937833;29;20458;-88
2021/05/06 12:52:29;;;;;;;1.30;1.00;;;26.90;52.10;;;;;;4937628;29;20574;-90
2021/05/06 12:54:55;;;;;;;1.10;1.00;;;26.80;52.00;;;;;;4937785;29;20805;-88
2021/05/06 12:57:22;;;;;;;1.00;0.90;;;26.80;52.00;;;;;;4937448;29;20444;-90
2021/05/06 12:59:50;;;;;;;1.00;0.90;;;26.80;52.10;;;;;;4938045;29;20845;-90
2021/05/06 13:02:17;;;;;;;1.30;0.97;;;26.80;52.10;;;;;;4937704;29;20484;-90
2021/05/06 13:04:46;;;;;;;1.10;0.97;;;26.80;52.20;;;;;;4937777;29;20526;-91
2021/05/06 13:07:12;;;;;;;1.20;1.00;;;26.70;52.10;;;;;;4937660;29;20859;-90
2021/05/06 13:09:44;;;;;;;1.00;0.90;;;26.70;52.10;;;;;;4937618;29;20448;-88
2021/05/06 13:12:12;;;;;;;1.20;1.10;;;26.70;52.20;;;;;;4938453;29;20546;-90
2021/05/06 13:14:51;;;;;;;0.90;0.80;;;26.70;52.20;;;;;;4937685;29;20455;-90
2021/05/06 13:17:25;;;;;;;1.97;0.90;;;26.80;52.10;;;;;;4938385;29;20848;-91
2021/05/06 13:19:52;;;;;;;1.20;1.10;;;26.80;52.00;;;;;;4938400;29;20478;-91
2021/05/06 13:22:19;;;;;;;1.17;1.07;;;26.80;52.00;;;;;;4937740;29;20536;-89
2021/05/06 13:24:48;;;;;;;1.03;0.93;;;26.80;52.00;;;;;;4937308;29;20445;-89
2021/05/06 13:27:15;;;;;;;1.10;1.00;;;26.80;52.20;;;;;;4937381;29;20481;-89
2021/05/06 13:29:47;;;;;;;1.00;0.90;;;26.80;52.20;;;;;;4937156;29;20534;-91
2021/05/06 13:32:14;;;;;;;1.03;0.93;;;26.80;52.20;;;;;;4937231;29;20546;-91
2021/05/06 13:34:54;;;;;;;1.07;0.97;;;26.80;52.80;;;;;;4937011;29;20560;-89
2021/05/06 13:37:20;;;;;;;1.10;1.00;;;26.80;52.30;;;;;;4937394;29;20432;-89
2021/05/06 13:39:46;;;;;;;1.03;0.90;;;26.80;52.30;;;;;;4937185;29;20476;-91
2021/05/06 13:42:16;;;;;;;1.10;1.00;;;26.60;52.10;;;;;;4937190;29;20445;-89
2021/05/06 13:44:42;;;;;;;1.00;0.83;;;26.80;52.30;;;;;;4936927;29;20952;-89
2021/05/06 13:47:09;;;;;;;0.90;0.80;;;26.80;52.90;;;;;;4936880;29;20484;-89
2021/05/06 13:49:37;;;;;;;1.10;0.90;;;26.80;52.30;;;;;;4937010;29;20478;-89
2021/05/06 13:52:05;;;;;;;0.97;0.73;;;26.80;52.30;;;;;;4936604;29;20475;-89
2021/05/06 13:54:31;;;;;;;1.00;0.80;;;26.80;52.30;;;;;;4936883;29;20443;-90
2021/05/06 13:56:58;;;;;;;1.10;1.00;;;26.80;52.30;;;;;;4936757;29;20448;-89
2021/05/06 13:59:25;;;;;;;1.40;1.20;;;26.80;52.30;;;;;;4937208;29;20475;-91
2021/05/06 14:01:53;;;;;;;1.20;1.10;;;26.80;52.30;;;;;;4936695;29;20812;-89
2021/05/06 14:04:20;;;;;;;1.20;1.07;;;26.70;52.20;;;;;;4937247;29;20471;-89
2021/05/06 14:06:48;;;;;;;1.20;0.93;;;26.80;52.90;;;;;;4937039;29;20899;-89
2021/05/06 14:09:19;;;;;;;1.10;1.00;;;26.80;52.40;;;;;;4935521;29;20851;-89
2021/05/06 14:11:47;;;;;;;1.10;0.90;;;26.80;52.30;;;;;;4936900;29;20943;-89
2021/05/06 14:14:16;;;;;;;1.00;0.80;;;26.70;52.20;;;;;;4936564;29;20478;-89
2021/05/06 14:16:43;;;;;;;1.20;1.10;;;26.70;52.30;;;;;;4937563;29;20815;-89
2021/05/06 14:19:12;;;;;;;1.00;0.80;;;26.70;52.20;;;;;;4936350;29;20494;-89
2021/05/06 14:21:39;;;;;;;1.00;0.90;;;26.70;52.30;;;;;;4936907;29;20489;-91
2021/05/06 14:24:09;;;;;;;1.00;0.80;;;26.70;52.20;;;;;;4936899;29;20455;-89
2021/05/06 14:26:36;;;;;;;1.10;1.00;;;26.70;52.20;;;;;;4936699;29;20526;-89
2021/05/06 14:29:03;;;;;;;1.10;1.00;;;26.70;52.10;;;;;;4936478;29;20862;-89
2021/05/06 14:31:29;;;;;;;1.17;1.07;;;26.70;52.10;;;;;;4936652;29;20803;-89
2021/05/06 14:33:58;;;;;;;1.20;1.10;;;26.70;52.00;;;;;;4936274;29;20467;-91
2021/05/06 14:36:25;;;;;;;1.00;0.90;;;26.80;52.00;;;;;;4936708;29;20787;-91
2021/05/06 14:38:51;;;;;;;1.00;0.90;;;26.80;51.90;;;;;;4936687;29;20535;-89
2021/05/06 14:41:18;;;;;;;1.10;1.00;;;26.80;51.90;;;;;;4937173;29;20463;-90
2021/05/06 14:43:46;;;;;;;1.10;1.00;;;26.90;51.80;;;;;;4936360;29;20480;-91
2021/05/06 14:46:12;;;;;;;1.10;1.00;;;26.90;51.80;;;;;;4936608;29;20593;-91
2021/05/06 14:48:39;;;;;;;0.90;0.80;;;26.90;51.80;;;;;;4935997;29;20586;-89
2021/05/06 14:51:05;;;;;;;1.00;0.80;;;26.90;51.80;;;;;;4919106;29;20471;-89
2021/05/06 14:53:32;;;;;;;1.00;0.80;;;26.90;51.60;;;;;;4936635;29;20542;-89
2021/05/06 14:55:59;;;;;;;1.00;0.73;;;26.90;51.60;;;;;;4936485;29;20859;-90
2021/05/06 14:58:29;;;;;;;1.30;0.83;;;26.90;51.60;;;;;;4936319;29;20456;-89
2021/05/06 15:00:55;;;;;;;1.10;0.90;;;27.00;51.60;;;;;;4936245;29;20445;-89
2021/05/06 15:03:22;;;;;;;1.10;1.00;;;27.00;51.60;;;;;;4936751;29;20553;-89
2021/05/06 15:05:48;;;;;;;1.10;0.80;;;26.90;51.60;;;;;;4936285;29;20503;-89
2021/05/06 15:08:16;;;;;;;1.10;0.83;;;26.90;51.50;;;;;;4935829;29;20483;-91
2021/05/06 15:10:43;;;;;;;1.00;0.90;;;27.00;51.60;;;;;;4935906;29;20463;-89
2021/05/06 15:13:10;;;;;;;1.00;0.90;;;26.90;51.50;;;;;;4936098;29;20535;-91
2021/05/06 15:15:37;;;;;;;1.00;0.80;;;26.90;51.60;;;;;;4936028;29;20478;-91
2021/05/06 15:18:03;;;;;;;1.10;0.90;;;26.90;51.50;;;;;;4936378;29;20548;-89
2021/05/06 15:20:30;;;;;;;1.10;1.00;;;26.90;51.50;;;;;;4936448;29;20471;-89
2021/05/06 15:22:56;;;;;;;1.00;0.80;;;26.90;51.50;;;;;;4939519;29;20507;-89
2021/05/06 15:25:24;;;;;;;0.97;0.80;;;26.90;51.40;;;;;;4939342;29;20450;-89